<?xml version='1.0' encoding='UTF-8'?><gpx version="1.1" creator="JPX - https://github.com/jenetics/jpx" xmlns="http://www.topografix.com/GPX/1/1"><trk><trkseg><trkpt lat="37.85573875391326" lon="13.792630635110706"><ele>575.0</ele><time>2026-03-30T07:38:05Z</time></trkpt><trkpt lat="37.855674363779386" lon="13.792619334628133"><ele>575.0</ele><time>2026-03-30T07:38:12Z</time></trkpt><trkpt lat="37.855605867253054" lon="13.792640978748285"><ele>575.0</ele><time>2026-03-30T07:38:17.999Z</time></trkpt><trkpt lat="37.85553898469518" lon="13.792661106903134"><ele>575.0</ele><time>2026-03-30T07:38:23.999Z</time></trkpt><trkpt lat="37.855486116283" lon="13.792707438683745"><ele>575.0</ele><time>2026-03-30T07:38:31.999Z</time></trkpt><trkpt lat="37.855441108750156" lon="13.792764317582174"><ele>575.0</ele><time>2026-03-30T07:38:36.999Z</time></trkpt><trkpt lat="37.85538740348055" lon="13.792812478401673"><ele>575.0</ele><time>2026-03-30T07:38:44.999Z</time></trkpt><trkpt lat="37.855331477173884" lon="13.79285528801207"><ele>574.4285714285714</ele><time>2026-03-30T07:38:55.999Z</time></trkpt><trkpt lat="37.855284220725196" lon="13.792911451018632"><ele>573.8571428571428</ele><time>2026-03-30T07:39:03.999Z</time></trkpt><trkpt lat="37.85524616694525" lon="13.792985443346142"><ele>573.2857142857142</ele><time>2026-03-30T07:39:13.999Z</time></trkpt><trkpt lat="37.855215263714186" lon="13.793065510049255"><ele>572.7142857142857</ele><time>2026-03-30T07:39:21.998Z</time></trkpt><trkpt lat="37.85520163544195" lon="13.793144742148277"><ele>572.1428571428571</ele><time>2026-03-30T07:39:33.998Z</time></trkpt><trkpt lat="37.85516488147858" lon="13.793228787951826"><ele>571.5714285714286</ele><time>2026-03-30T07:39:42Z</time></trkpt><trkpt lat="37.85514422047915" lon="13.793310787796289"><ele>571.0</ele><time>2026-03-30T07:39:52Z</time></trkpt><trkpt lat="37.85510337022765" lon="13.793399081556894"><ele>573.4285714285714</ele><time>2026-03-30T07:40:07.999Z</time></trkpt><trkpt lat="37.85506861041727" lon="13.793467006230262"><ele>575.8571428571429</ele><time>2026-03-30T07:40:16.999Z</time></trkpt><trkpt lat="37.85505358748564" lon="13.79355084249818"><ele>578.2857142857142</ele><time>2026-03-30T07:40:24.999Z</time></trkpt><trkpt lat="37.85501287131613" lon="13.793616420059124"><ele>580.7142857142858</ele><time>2026-03-30T07:40:31.999Z</time></trkpt><trkpt lat="37.85498826172529" lon="13.793694938615515"><ele>583.1428571428571</ele><time>2026-03-30T07:40:37.999Z</time></trkpt><trkpt lat="37.85494690685703" lon="13.793755677931765"><ele>585.5714285714286</ele><time>2026-03-30T07:40:47.999Z</time></trkpt><trkpt lat="37.854906575757596" lon="13.793830679730208"><ele>588.0</ele><time>2026-03-30T07:41:11.999Z</time></trkpt><trkpt lat="37.85484303440246" lon="13.793867640637947"><ele>588.0</ele><time>2026-03-30T07:41:19.998Z</time></trkpt><trkpt lat="37.85478256469468" lon="13.793917949948291"><ele>588.0</ele><time>2026-03-30T07:41:34.998Z</time></trkpt><trkpt lat="37.85474839220169" lon="13.793989536583378"><ele>588.0</ele><time>2026-03-30T07:41:45.999Z</time></trkpt><trkpt lat="37.85470042314141" lon="13.794045102628814"><ele>588.0</ele><time>2026-03-30T07:42:25.999Z</time></trkpt><trkpt lat="37.85464104940185" lon="13.79408978039109"><ele>588.0</ele><time>2026-03-30T07:42:34.999Z</time></trkpt><trkpt lat="37.85457386545597" lon="13.794092045872862"><ele>588.0</ele><time>2026-03-30T07:42:43.999Z</time></trkpt><trkpt lat="37.854501526008875" lon="13.794099765015325"><ele>588.0</ele><time>2026-03-30T07:42:51.999Z</time></trkpt><trkpt lat="37.85443849858115" lon="13.794131497270694"><ele>588.0</ele><time>2026-03-30T07:43:04.999Z</time></trkpt><trkpt lat="37.854370329589614" lon="13.794158673202737"><ele>588.0</ele><time>2026-03-30T07:43:16.999Z</time></trkpt><trkpt lat="37.85430703143116" lon="13.794187527315588"><ele>588.0</ele><time>2026-03-30T07:43:34.998Z</time></trkpt><trkpt lat="37.85425929124477" lon="13.794251522761689"><ele>588.0</ele><time>2026-03-30T07:43:40.998Z</time></trkpt><trkpt lat="37.85419551109907" lon="13.79427199582461"><ele>588.0</ele><time>2026-03-30T07:43:47.998Z</time></trkpt><trkpt lat="37.854132070932245" lon="13.794302364036211"><ele>588.0</ele><time>2026-03-30T07:43:57Z</time></trkpt><trkpt lat="37.8540784531778" lon="13.794371736195842"><ele>588.0</ele><time>2026-03-30T07:44:05Z</time></trkpt><trkpt lat="37.85401753704028" lon="13.794421242792636"><ele>591.2857142857143</ele><time>2026-03-30T07:44:13Z</time></trkpt><trkpt lat="37.853960449973655" lon="13.794461216042547"><ele>594.5714285714286</ele><time>2026-03-30T07:44:30.999Z</time></trkpt><trkpt lat="37.85387141518314" lon="13.794528201510103"><ele>597.8571428571429</ele><time>2026-03-30T07:46:02Z</time></trkpt><trkpt lat="37.85382292331587" lon="13.794591814914074"><ele>601.1428571428571</ele><time>2026-03-30T07:46:12Z</time></trkpt><trkpt lat="37.85374835169784" lon="13.79459935479817"><ele>604.4285714285714</ele><time>2026-03-30T07:46:44Z</time></trkpt><trkpt lat="37.8537691554374" lon="13.79451722106622"><ele>607.7142857142858</ele><time>2026-03-30T07:47:02.999Z</time></trkpt><trkpt lat="37.85382127711297" lon="13.794469991448286"><ele>611.0</ele><time>2026-03-30T07:47:31.999Z</time></trkpt><trkpt lat="37.85378248188556" lon="13.794535859922034"><ele>611.0000000000001</ele><time>2026-03-30T07:48:58Z</time></trkpt><trkpt lat="37.853755287648006" lon="13.794607904424403"><ele>611.0</ele><time>2026-03-30T07:49:10.999Z</time></trkpt><trkpt lat="37.85380405466172" lon="13.794660986146352"><ele>611.0</ele><time>2026-03-30T07:49:43.999Z</time></trkpt><trkpt lat="37.85376117886932" lon="13.79472919667314"><ele>611.0</ele><time>2026-03-30T07:49:49.999Z</time></trkpt><trkpt lat="37.85371242741589" lon="13.794786958241474"><ele>611.0</ele><time>2026-03-30T07:49:57.999Z</time></trkpt><trkpt lat="37.85365777321422" lon="13.794829304894286"><ele>611.0000000000001</ele><time>2026-03-30T07:50:11Z</time></trkpt><trkpt lat="37.8535935216496" lon="13.794806959789376"><ele>611.0</ele><time>2026-03-30T07:50:20Z</time></trkpt><trkpt lat="37.853543469723256" lon="13.794754841632894"><ele>611.0000000000001</ele><time>2026-03-30T07:50:32Z</time></trkpt><trkpt lat="37.85351788059425" lon="13.794681978648734"><ele>611.0</ele><time>2026-03-30T07:50:42Z</time></trkpt><trkpt lat="37.85349609409915" lon="13.794603383741997"><ele>611.0</ele><time>2026-03-30T07:50:57Z</time></trkpt><trkpt lat="37.85347482202301" lon="13.794527853255019"><ele>611.0</ele><time>2026-03-30T07:51:08.999Z</time></trkpt><trkpt lat="37.853442320576484" lon="13.794455991740117"><ele>611.0</ele><time>2026-03-30T07:51:30.999Z</time></trkpt><trkpt lat="37.85341373731577" lon="13.794384534280608"><ele>611.0000000000001</ele><time>2026-03-30T07:51:42.999Z</time></trkpt><trkpt lat="37.85339548272389" lon="13.79430191149772"><ele>611.0</ele><time>2026-03-30T07:51:50.999Z</time></trkpt><trkpt lat="37.853386398890976" lon="13.794222889269212"><ele>614.4285714285714</ele><time>2026-03-30T07:52:01.999Z</time></trkpt><trkpt lat="37.85338868965687" lon="13.794132192430085"><ele>617.8571428571429</ele><time>2026-03-30T07:52:14Z</time></trkpt><trkpt lat="37.85337139023825" lon="13.794051293484419"><ele>621.2857142857142</ele><time>2026-03-30T07:52:24Z</time></trkpt><trkpt lat="37.85336459142627" lon="13.793965412939452"><ele>624.7142857142858</ele><time>2026-03-30T07:52:35Z</time></trkpt><trkpt lat="37.85340104824113" lon="13.793899980716496"><ele>628.1428571428571</ele><time>2026-03-30T07:52:44Z</time></trkpt><trkpt lat="37.853392601633" lon="13.793820557995616"><ele>631.5714285714286</ele><time>2026-03-30T07:52:52Z</time></trkpt><trkpt lat="37.853447216616985" lon="13.793778924301407"><ele>635.0</ele><time>2026-03-30T07:55:27.999Z</time></trkpt><trkpt lat="37.853384061621675" lon="13.793679188769973"><ele>635.0</ele><time>2026-03-30T07:55:56.999Z</time></trkpt><trkpt lat="37.85332481740679" lon="13.793582922104548"><ele>635.0</ele><time>2026-03-30T07:56:40Z</time></trkpt><trkpt lat="37.853257377200165" lon="13.793593441084091"><ele>635.0</ele><time>2026-03-30T07:57:22.999Z</time></trkpt><trkpt lat="37.8532020261926" lon="13.79363149661563"><ele>635.0</ele><time>2026-03-30T07:57:49.999Z</time></trkpt><trkpt lat="37.85313633854595" lon="13.79364816211949"><ele>635.0</ele><time>2026-03-30T07:58:05.999Z</time></trkpt><trkpt lat="37.853057759950616" lon="13.79361044459181"><ele>635.0</ele><time>2026-03-30T07:58:34Z</time></trkpt><trkpt lat="37.85299097613926" lon="13.79356668434285"><ele>634.9999999999999</ele><time>2026-03-30T07:59:09Z</time></trkpt><trkpt lat="37.85290028026485" lon="13.7935180930274"><ele>635.0</ele><time>2026-03-30T07:59:25.999Z</time></trkpt><trkpt lat="37.85284290500932" lon="13.793483135417517"><ele>635.0</ele><time>2026-03-30T07:59:35.999Z</time></trkpt><trkpt lat="37.85278056686707" lon="13.79352983256281"><ele>635.0</ele><time>2026-03-30T07:59:41.999Z</time></trkpt><trkpt lat="37.85271367048725" lon="13.793523700539982"><ele>635.0</ele><time>2026-03-30T07:59:51.999Z</time></trkpt><trkpt lat="37.85265095459573" lon="13.793503765574505"><ele>634.9999999999999</ele><time>2026-03-30T08:00:15.999Z</time></trkpt><trkpt lat="37.85258512505524" lon="13.793493352938063"><ele>635.0</ele><time>2026-03-30T08:00:39Z</time></trkpt><trkpt lat="37.8525222356733" lon="13.793482836537333"><ele>640.1666666666666</ele><time>2026-03-30T08:00:46Z</time></trkpt><trkpt lat="37.85246399114058" lon="13.793437724780693"><ele>645.3333333333333</ele><time>2026-03-30T08:00:55Z</time></trkpt><trkpt lat="37.85238585967454" lon="13.793427431561081"><ele>650.5</ele><time>2026-03-30T08:02:58Z</time></trkpt><trkpt lat="37.85229805313046" lon="13.793385381317865"><ele>655.6666666666666</ele><time>2026-03-30T08:03:50.999Z</time></trkpt><trkpt lat="37.85222982117646" lon="13.793392938976616"><ele>660.8333333333334</ele><time>2026-03-30T08:03:59.999Z</time></trkpt><trkpt lat="37.852169920068114" lon="13.793347147445985"><ele>666.0</ele><time>2026-03-30T08:04:17.999Z</time></trkpt><trkpt lat="37.852099696520284" lon="13.793284071066608"><ele>666.0</ele><time>2026-03-30T08:04:32.999Z</time></trkpt><trkpt lat="37.85207489825049" lon="13.79321012419606"><ele>666.0</ele><time>2026-03-30T08:04:58Z</time></trkpt><trkpt lat="37.85205934045375" lon="13.79312918216025"><ele>666.0</ele><time>2026-03-30T08:05:11Z</time></trkpt><trkpt lat="37.852029984471166" lon="13.793055658479284"><ele>666.0</ele><time>2026-03-30T08:05:21Z</time></trkpt><trkpt lat="37.85201525607756" lon="13.792974305017895"><ele>666.0</ele><time>2026-03-30T08:05:32Z</time></trkpt><trkpt lat="37.851963165985175" lon="13.792924748954006"><ele>666.0</ele><time>2026-03-30T08:05:44Z</time></trkpt><trkpt lat="37.85193161165842" lon="13.792846368509853"><ele>666.0</ele><time>2026-03-30T08:05:59.999Z</time></trkpt><trkpt lat="37.85188548026468" lon="13.792786858923806"><ele>666.0</ele><time>2026-03-30T08:06:28.999Z</time></trkpt><trkpt lat="37.85186640804566" lon="13.792710496058385"><ele>666.0</ele><time>2026-03-30T08:06:44.999Z</time></trkpt><trkpt lat="37.85182440082453" lon="13.792643820418634"><ele>666.0</ele><time>2026-03-30T08:06:58Z</time></trkpt><trkpt lat="37.85177777759037" lon="13.792579362715468"><ele>666.0</ele><time>2026-03-30T08:07:14Z</time></trkpt><trkpt lat="37.851736151235414" lon="13.792515263480539"><ele>666.0</ele><time>2026-03-30T08:07:30Z</time></trkpt><trkpt lat="37.851719276710554" lon="13.792437171153578"><ele>666.0</ele><time>2026-03-30T08:07:40Z</time></trkpt><trkpt lat="37.85169197140395" lon="13.79236279344505"><ele>666.0</ele><time>2026-03-30T08:07:52.999Z</time></trkpt><trkpt lat="37.851664239393074" lon="13.792282657218117"><ele>669.8333333333334</ele><time>2026-03-30T08:08:11.999Z</time></trkpt><trkpt lat="37.85171207231582" lon="13.792228086740113"><ele>673.6666666666666</ele><time>2026-03-30T08:08:34.999Z</time></trkpt><trkpt lat="37.85182305990794" lon="13.792202946355122"><ele>677.5</ele><time>2026-03-30T08:09:19Z</time></trkpt><trkpt lat="37.8518812721918" lon="13.792163383171141"><ele>681.3333333333333</ele><time>2026-03-30T08:09:25Z</time></trkpt><trkpt lat="37.85194642372608" lon="13.792115081075911"><ele>685.1666666666666</ele><time>2026-03-30T08:09:33Z</time></trkpt><trkpt lat="37.852008870671675" lon="13.792049461755933"><ele>689.0</ele><time>2026-03-30T08:09:49.999Z</time></trkpt><trkpt lat="37.85206559439078" lon="13.792007412046038"><ele>689.0</ele><time>2026-03-30T08:09:56.999Z</time></trkpt><trkpt lat="37.852128793987184" lon="13.791984233586504"><ele>689.0</ele><time>2026-03-30T08:10:36.999Z</time></trkpt><trkpt lat="37.852173438774834" lon="13.792053562838685"><ele>689.0</ele><time>2026-03-30T08:10:45.999Z</time></trkpt><trkpt lat="37.85211920140943" lon="13.79200469995524"><ele>689.0</ele><time>2026-03-30T08:12:36.999Z</time></trkpt><trkpt lat="37.85203133957458" lon="13.79202524665969"><ele>689.0</ele><time>2026-03-30T08:12:46.999Z</time></trkpt><trkpt lat="37.85203003517921" lon="13.791937513296828"><ele>689.0</ele><time>2026-03-30T08:12:56.999Z</time></trkpt><trkpt lat="37.85203250264574" lon="13.791857737767591"><ele>689.0</ele><time>2026-03-30T08:13:05.999Z</time></trkpt><trkpt lat="37.852084977533664" lon="13.791754581120308"><ele>690.1428571428571</ele><time>2026-03-30T08:13:35Z</time></trkpt><trkpt lat="37.85210138072569" lon="13.791665145112464"><ele>691.2857142857143</ele><time>2026-03-30T08:13:44Z</time></trkpt><trkpt lat="37.85214395933185" lon="13.79159998812641"><ele>692.4285714285714</ele><time>2026-03-30T08:13:55Z</time></trkpt><trkpt lat="37.85215765957618" lon="13.791515230779462"><ele>693.5714285714286</ele><time>2026-03-30T08:14:28.999Z</time></trkpt><trkpt lat="37.85221144598193" lon="13.791455843468334"><ele>694.7142857142857</ele><time>2026-03-30T08:14:54.999Z</time></trkpt><trkpt lat="37.852243169259026" lon="13.79138414246337"><ele>695.8571428571429</ele><time>2026-03-30T08:15:11.999Z</time></trkpt><trkpt lat="37.85227006659256" lon="13.791311591266219"><ele>697.0</ele><time>2026-03-30T08:15:20Z</time></trkpt><trkpt lat="37.852253780209395" lon="13.791226024745113"><ele>697.0</ele><time>2026-03-30T08:15:27Z</time></trkpt><trkpt lat="37.8523197332031" lon="13.791239065083028"><ele>697.0</ele><time>2026-03-30T08:16:39.999Z</time></trkpt><trkpt lat="37.85237505399092" lon="13.791190779799145"><ele>697.0</ele><time>2026-03-30T08:17:00.999Z</time></trkpt><trkpt lat="37.85242730094359" lon="13.791140253219744"><ele>697.0</ele><time>2026-03-30T08:17:31Z</time></trkpt><trkpt lat="37.85247202061689" lon="13.791043491194811"><ele>697.0</ele><time>2026-03-30T08:18:05.999Z</time></trkpt><trkpt lat="37.85253892079324" lon="13.791039658696423"><ele>697.0</ele><time>2026-03-30T08:18:14.999Z</time></trkpt><trkpt lat="37.85258118868439" lon="13.790972013110345"><ele>697.0</ele><time>2026-03-30T08:18:24.999Z</time></trkpt><trkpt lat="37.85263513175473" lon="13.790917367484564"><ele>693.7142857142858</ele><time>2026-03-30T08:18:33.999Z</time></trkpt><trkpt lat="37.8526780874566" lon="13.790858081226189"><ele>690.4285714285714</ele><time>2026-03-30T08:18:40.999Z</time></trkpt><trkpt lat="37.852719701705475" lon="13.79078841711088"><ele>687.1428571428571</ele><time>2026-03-30T08:18:54.999Z</time></trkpt><trkpt lat="37.85274698706644" lon="13.790705571965965"><ele>683.8571428571429</ele><time>2026-03-30T08:19:53Z</time></trkpt><trkpt lat="37.8527921877112" lon="13.790648857762225"><ele>680.5714285714286</ele><time>2026-03-30T08:19:59Z</time></trkpt><trkpt lat="37.85279802768443" lon="13.790566195805411"><ele>677.2857142857143</ele><time>2026-03-30T08:20:07Z</time></trkpt><trkpt lat="37.85285473939138" lon="13.790525374533159"><ele>674.0</ele><time>2026-03-30T08:20:28.999Z</time></trkpt><trkpt lat="37.85288317345788" lon="13.790437287772022"><ele>674.0000000000001</ele><time>2026-03-30T08:20:37.999Z</time></trkpt><trkpt lat="37.852932976461176" lon="13.790384319011052"><ele>674.0</ele><time>2026-03-30T08:21:12.999Z</time></trkpt><trkpt lat="37.85295913067974" lon="13.790311016089788"><ele>674.0</ele><time>2026-03-30T08:21:19.999Z</time></trkpt><trkpt lat="37.852999996236335" lon="13.79023673955074"><ele>674.0</ele><time>2026-03-30T08:21:26.999Z</time></trkpt><trkpt lat="37.853032501624305" lon="13.790160644816163"><ele>674.0</ele><time>2026-03-30T08:21:45Z</time></trkpt><trkpt lat="37.85308374571549" lon="13.790085914402983"><ele>674.0000000000001</ele><time>2026-03-30T08:22:14Z</time></trkpt><trkpt lat="37.85311979226246" lon="13.790016986083915"><ele>674.0</ele><time>2026-03-30T08:22:27Z</time></trkpt><trkpt lat="37.85316880244299" lon="13.789959023812157"><ele>672.7142857142858</ele><time>2026-03-30T08:22:58.999Z</time></trkpt><trkpt lat="37.853207355702516" lon="13.78989072222646"><ele>671.4285714285714</ele><time>2026-03-30T08:23:34.999Z</time></trkpt><trkpt lat="37.8532634142594" lon="13.78982430373293"><ele>670.1428571428571</ele><time>2026-03-30T08:24:03Z</time></trkpt><trkpt lat="37.853297741380636" lon="13.789753940052293"><ele>668.8571428571429</ele><time>2026-03-30T08:24:29Z</time></trkpt><trkpt lat="37.85334038481829" lon="13.789685549212509"><ele>667.5714285714286</ele><time>2026-03-30T08:24:50.999Z</time></trkpt><trkpt lat="37.853379607308064" lon="13.78961339944869"><ele>666.2857142857143</ele><time>2026-03-30T08:25:08.999Z</time></trkpt><trkpt lat="37.85342616767679" lon="13.789548275685105"><ele>665.0</ele><time>2026-03-30T08:25:16.999Z</time></trkpt><trkpt lat="37.853459930137724" lon="13.789480904729114"><ele>663.0</ele><time>2026-03-30T08:25:24.999Z</time></trkpt><trkpt lat="37.85350187422748" lon="13.78942106414227"><ele>661.0</ele><time>2026-03-30T08:26:02Z</time></trkpt><trkpt lat="37.85353046598658" lon="13.789348233688642"><ele>659.0</ele><time>2026-03-30T08:26:51.999Z</time></trkpt><trkpt lat="37.85358512895894" lon="13.789303848564163"><ele>657.0</ele><time>2026-03-30T08:26:59.999Z</time></trkpt><trkpt lat="37.85361680067742" lon="13.789233463219984"><ele>655.0</ele><time>2026-03-30T08:27:05.999Z</time></trkpt><trkpt lat="37.853678670300795" lon="13.789205990377368"><ele>653.0</ele><time>2026-03-30T08:27:12.999Z</time></trkpt><trkpt lat="37.85370971994541" lon="13.789135224361237"><ele>651.0</ele><time>2026-03-30T08:27:34.999Z</time></trkpt><trkpt lat="37.85375738031759" lon="13.789026375776652"><ele>650.2857142857143</ele><time>2026-03-30T08:29:51.998Z</time></trkpt><trkpt lat="37.853808056362965" lon="13.788974524594137"><ele>649.5714285714286</ele><time>2026-03-30T08:29:59.998Z</time></trkpt><trkpt lat="37.85386062996769" lon="13.788922525896776"><ele>648.8571428571429</ele><time>2026-03-30T08:30:07Z</time></trkpt><trkpt lat="37.85391678277523" lon="13.788881101350858"><ele>648.1428571428571</ele><time>2026-03-30T08:30:16Z</time></trkpt><trkpt lat="37.853969350051415" lon="13.788831935811547"><ele>647.4285714285714</ele><time>2026-03-30T08:30:23Z</time></trkpt><trkpt lat="37.854028956026745" lon="13.78877819549312"><ele>646.7142857142858</ele><time>2026-03-30T08:30:31Z</time></trkpt><trkpt lat="37.85408920076213" lon="13.788734622255204"><ele>646.0</ele><time>2026-03-30T08:31:05.999Z</time></trkpt><trkpt lat="37.85414398010336" lon="13.788681834295792"><ele>646.0</ele><time>2026-03-30T08:31:27.999Z</time></trkpt><trkpt lat="37.854201458160055" lon="13.788637967635115"><ele>646.0</ele><time>2026-03-30T08:31:39.999Z</time></trkpt><trkpt lat="37.85427355088204" lon="13.788558781907657"><ele>646.0</ele><time>2026-03-30T08:32:01.998Z</time></trkpt><trkpt lat="37.85432194019493" lon="13.788506314577308"><ele>646.0</ele><time>2026-03-30T08:32:15Z</time></trkpt><trkpt lat="37.85438654583226" lon="13.788484695098592"><ele>646.0</ele><time>2026-03-30T08:32:24Z</time></trkpt><trkpt lat="37.85446237629836" lon="13.78841105739556"><ele>646.0</ele><time>2026-03-30T08:32:30Z</time></trkpt><trkpt lat="37.854494668243696" lon="13.788341588975712"><ele>643.0000000000001</ele><time>2026-03-30T08:32:43Z</time></trkpt><trkpt lat="37.85453819389182" lon="13.788280502352746"><ele>640.0</ele><time>2026-03-30T08:33:08.999Z</time></trkpt><trkpt lat="37.85459843834586" lon="13.788230374784046"><ele>637.0</ele><time>2026-03-30T08:33:19.999Z</time></trkpt><trkpt lat="37.85465262878112" lon="13.788181523954785"><ele>634.0</ele><time>2026-03-30T08:33:28.999Z</time></trkpt><trkpt lat="37.8547006664285" lon="13.788116543499227"><ele>631.0</ele><time>2026-03-30T08:33:39.999Z</time></trkpt><trkpt lat="37.854764920759266" lon="13.788132519328808"><ele>628.0000000000001</ele><time>2026-03-30T08:33:55.999Z</time></trkpt><trkpt lat="37.85472749081724" lon="13.78806563174803"><ele>625.0</ele><time>2026-03-30T08:34:26Z</time></trkpt><trkpt lat="37.85480030492848" lon="13.788055435943596"><ele>625.0000000000001</ele><time>2026-03-30T08:34:37Z</time></trkpt><trkpt lat="37.8548202913485" lon="13.787973931260813"><ele>625.0</ele><time>2026-03-30T08:34:50Z</time></trkpt><trkpt lat="37.85485406904676" lon="13.787900416812535"><ele>625.0</ele><time>2026-03-30T08:34:57.999Z</time></trkpt><trkpt lat="37.854907232781855" lon="13.78785510989206"><ele>625.0</ele><time>2026-03-30T08:35:05.999Z</time></trkpt><trkpt lat="37.854944469389004" lon="13.787762038037929"><ele>625.0</ele><time>2026-03-30T08:35:13.999Z</time></trkpt><trkpt lat="37.85497967705494" lon="13.787689707236247"><ele>625.0000000000001</ele><time>2026-03-30T08:35:31.999Z</time></trkpt><trkpt lat="37.855016935488656" lon="13.787622469150074"><ele>625.0</ele><time>2026-03-30T08:35:51.999Z</time></trkpt><trkpt lat="37.85505004407597" lon="13.787537245692567"><ele>623.6666666666667</ele><time>2026-03-30T08:36:21Z</time></trkpt><trkpt lat="37.85504591219987" lon="13.787452859361707"><ele>622.3333333333334</ele><time>2026-03-30T08:36:32Z</time></trkpt><trkpt lat="37.85508225836951" lon="13.787378059937682"><ele>621.0</ele><time>2026-03-30T08:36:40Z</time></trkpt><trkpt lat="37.85511125168343" lon="13.78730253280934"><ele>619.6666666666666</ele><time>2026-03-30T08:36:46Z</time></trkpt><trkpt lat="37.855144250800116" lon="13.787219774484324"><ele>618.3333333333333</ele><time>2026-03-30T08:36:53Z</time></trkpt><trkpt lat="37.8551237090922" lon="13.78710468754229"><ele>617.0</ele><time>2026-03-30T08:37:57.999Z</time></trkpt><trkpt lat="37.855196689303675" lon="13.787023816836653"><ele>614.0</ele><time>2026-03-30T08:38:17.998Z</time></trkpt><trkpt lat="37.85521886552619" lon="13.78694254260647"><ele>611.0</ele><time>2026-03-30T08:38:21.998Z</time></trkpt><trkpt lat="37.855269298360795" lon="13.786890209927119"><ele>608.0</ele><time>2026-03-30T08:38:28Z</time></trkpt><trkpt lat="37.85528859546217" lon="13.786802140006815"><ele>605.0</ele><time>2026-03-30T08:38:33Z</time></trkpt><trkpt lat="37.855284864381744" lon="13.786708299591353"><ele>602.0</ele><time>2026-03-30T08:38:40Z</time></trkpt><trkpt lat="37.85529545113004" lon="13.786626051573062"><ele>599.0</ele><time>2026-03-30T08:38:47Z</time></trkpt><trkpt lat="37.855281251520516" lon="13.786547951336024"><ele>596.0</ele><time>2026-03-30T08:39:01Z</time></trkpt><trkpt lat="37.85530830214571" lon="13.786466630511926"><ele>595.7142857142857</ele><time>2026-03-30T08:39:09Z</time></trkpt><trkpt lat="37.8553567318727" lon="13.786401361919875"><ele>595.4285714285713</ele><time>2026-03-30T08:39:34.999Z</time></trkpt><trkpt lat="37.85540471726703" lon="13.78634640126073"><ele>595.1428571428571</ele><time>2026-03-30T08:40:11.999Z</time></trkpt><trkpt lat="37.855442669885" lon="13.786279132044687"><ele>594.8571428571429</ele><time>2026-03-30T08:40:21.999Z</time></trkpt><trkpt lat="37.85546330626147" lon="13.786200963401887"><ele>594.5714285714287</ele><time>2026-03-30T08:42:13.999Z</time></trkpt><trkpt lat="37.85553814947971" lon="13.786157080970284"><ele>594.2857142857143</ele><time>2026-03-30T08:42:22.999Z</time></trkpt><trkpt lat="37.855594732228084" lon="13.786091987720136"><ele>594.0</ele><time>2026-03-30T08:42:30.998Z</time></trkpt><trkpt lat="37.85564962062366" lon="13.78603066101743"><ele>593.6666666666666</ele><time>2026-03-30T08:42:43Z</time></trkpt><trkpt lat="37.85570142942381" lon="13.785969518108823"><ele>593.3333333333334</ele><time>2026-03-30T08:44:19.999Z</time></trkpt><trkpt lat="37.855651676131" lon="13.785885242228503"><ele>593.0</ele><time>2026-03-30T08:45:06Z</time></trkpt><trkpt lat="37.85567208292647" lon="13.785962474172596"><ele>592.6666666666667</ele><time>2026-03-30T08:45:55.999Z</time></trkpt><trkpt lat="37.85574312822517" lon="13.785961536314124"><ele>592.3333333333334</ele><time>2026-03-30T08:46:10.999Z</time></trkpt><trkpt lat="37.855839014360605" lon="13.785900402181317"><ele>592.0</ele><time>2026-03-30T08:46:56Z</time></trkpt><trkpt lat="37.85588949140387" lon="13.785852669336933"><ele>592.0</ele><time>2026-03-30T08:47:06Z</time></trkpt><trkpt lat="37.855945135619294" lon="13.785800836858531"><ele>592.0</ele><time>2026-03-30T08:47:20Z</time></trkpt><trkpt lat="37.85600051738789" lon="13.785745991273345"><ele>592.0</ele><time>2026-03-30T08:47:35Z</time></trkpt><trkpt lat="37.85604581178297" lon="13.785684191266922"><ele>592.0</ele><time>2026-03-30T08:47:44Z</time></trkpt><trkpt lat="37.85608571080541" lon="13.785616599730666"><ele>592.0</ele><time>2026-03-30T08:47:52Z</time></trkpt><trkpt lat="37.85615212872437" lon="13.78557919282435"><ele>592.0</ele><time>2026-03-30T08:48:17.999Z</time></trkpt><trkpt lat="37.85620813990692" lon="13.78554164560929"><ele>592.0</ele><time>2026-03-30T08:48:24.999Z</time></trkpt><trkpt lat="37.856272497104726" lon="13.785501104876078"><ele>590.5714285714286</ele><time>2026-03-30T08:48:31.999Z</time></trkpt><trkpt lat="37.85633895903385" lon="13.785466649823519"><ele>589.1428571428571</ele><time>2026-03-30T08:48:39.999Z</time></trkpt><trkpt lat="37.85639305448126" lon="13.785420643154144"><ele>587.7142857142857</ele><time>2026-03-30T08:48:47.999Z</time></trkpt><trkpt lat="37.856413797202116" lon="13.785343650450761"><ele>586.2857142857142</ele><time>2026-03-30T08:48:53.999Z</time></trkpt><trkpt lat="37.856481408019945" lon="13.785336444184573"><ele>584.8571428571428</ele><time>2026-03-30T08:49:14Z</time></trkpt><trkpt lat="37.856515826629774" lon="13.78522403393493"><ele>583.4285714285714</ele><time>2026-03-30T08:50:25.999Z</time></trkpt><trkpt lat="37.856565674267905" lon="13.78516769852624"><ele>582.0</ele><time>2026-03-30T08:50:34.999Z</time></trkpt><trkpt lat="37.8566162593407" lon="13.785118131150536"><ele>581.1428571428571</ele><time>2026-03-30T08:50:40.999Z</time></trkpt><trkpt lat="37.856666037791356" lon="13.785067642689139"><ele>580.2857142857142</ele><time>2026-03-30T08:50:46.999Z</time></trkpt><trkpt lat="37.85673529482349" lon="13.785044430195587"><ele>579.4285714285714</ele><time>2026-03-30T08:50:54.998Z</time></trkpt><trkpt lat="37.85679749913486" lon="13.785014477162374"><ele>578.5714285714286</ele><time>2026-03-30T08:52:16.999Z</time></trkpt><trkpt lat="37.85686461460985" lon="13.78497958830838"><ele>577.7142857142858</ele><time>2026-03-30T08:52:26.999Z</time></trkpt><trkpt lat="37.85691244907626" lon="13.784914539240804"><ele>576.8571428571429</ele><time>2026-03-30T08:52:32.999Z</time></trkpt><trkpt lat="37.85687686213062" lon="13.784840892294657"><ele>576.0</ele><time>2026-03-30T08:52:37.999Z</time></trkpt><trkpt lat="37.856830895574866" lon="13.784773280545409"><ele>576.0000000000001</ele><time>2026-03-30T08:52:45.999Z</time></trkpt><trkpt lat="37.856768981230566" lon="13.784736872002446"><ele>576.0</ele><time>2026-03-30T08:52:52.998Z</time></trkpt><trkpt lat="37.85683668311416" lon="13.784776983770254"><ele>576.0</ele><time>2026-03-30T08:56:05.999Z</time></trkpt><trkpt lat="37.85686880358212" lon="13.784852221240437"><ele>576.0</ele><time>2026-03-30T08:56:22.999Z</time></trkpt><trkpt lat="37.856914629495854" lon="13.784912895377154"><ele>576.0</ele><time>2026-03-30T08:56:29.999Z</time></trkpt><trkpt lat="37.856979129172615" lon="13.784938683875785"><ele>576.0000000000001</ele><time>2026-03-30T08:56:53.999Z</time></trkpt><trkpt lat="37.857032181782536" lon="13.78488226535906"><ele>576.0</ele><time>2026-03-30T08:57:11.999Z</time></trkpt><trkpt lat="37.85708039462678" lon="13.784817501776374"><ele>575.1428571428572</ele><time>2026-03-30T08:57:23Z</time></trkpt><trkpt lat="37.857147994314836" lon="13.784785996899881"><ele>574.2857142857143</ele><time>2026-03-30T08:57:38Z</time></trkpt><trkpt lat="37.85720831742292" lon="13.784810837135778"><ele>573.4285714285714</ele><time>2026-03-30T08:57:49Z</time></trkpt><trkpt lat="37.85720769105026" lon="13.784723369011028"><ele>572.5714285714287</ele><time>2026-03-30T08:57:58Z</time></trkpt><trkpt lat="37.857268623966284" lon="13.7846980064582"><ele>571.7142857142858</ele><time>2026-03-30T08:58:09Z</time></trkpt><trkpt lat="37.85732250114368" lon="13.784746253342565"><ele>570.8571428571429</ele><time>2026-03-30T08:58:19Z</time></trkpt><trkpt lat="37.8573832621348" lon="13.784776880368952"><ele>570.0</ele><time>2026-03-30T08:58:24Z</time></trkpt><trkpt lat="37.85742287950499" lon="13.78484622579885"><ele>570.0</ele><time>2026-03-30T08:59:00.999Z</time></trkpt><trkpt lat="37.85743372543401" lon="13.784924797542146"><ele>570.0</ele><time>2026-03-30T08:59:23.999Z</time></trkpt><trkpt lat="37.85744646192956" lon="13.785004260795038"><ele>570.0</ele><time>2026-03-30T08:59:30Z</time></trkpt><trkpt lat="37.857445599998464" lon="13.785092122945247"><ele>570.0</ele><time>2026-03-30T08:59:43Z</time></trkpt><trkpt lat="37.857428074223" lon="13.78517112653869"><ele>570.0</ele><time>2026-03-30T08:59:51Z</time></trkpt><trkpt lat="37.857398964812944" lon="13.785247438228103"><ele>570.0</ele><time>2026-03-30T08:59:58Z</time></trkpt><trkpt lat="37.85739708329609" lon="13.785335717512092"><ele>570.0</ele><time>2026-03-30T09:00:07Z</time></trkpt><trkpt lat="37.857377292840766" lon="13.785424198247732"><ele>569.4285714285714</ele><time>2026-03-30T09:00:16Z</time></trkpt><trkpt lat="37.857363287786654" lon="13.78551018907172"><ele>568.8571428571429</ele><time>2026-03-30T09:00:23Z</time></trkpt><trkpt lat="37.857350729734854" lon="13.785599342006806"><ele>568.2857142857143</ele><time>2026-03-30T09:00:34.999Z</time></trkpt><trkpt lat="37.85732732680761" lon="13.785678590321899"><ele>567.7142857142858</ele><time>2026-03-30T09:00:40.999Z</time></trkpt><trkpt lat="37.85730513265536" lon="13.785766456574624"><ele>567.1428571428572</ele><time>2026-03-30T09:00:46.999Z</time></trkpt><trkpt lat="37.85726015940185" lon="13.785834292015702"><ele>566.5714285714286</ele><time>2026-03-30T09:00:54.999Z</time></trkpt><trkpt lat="37.857249535507556" lon="13.785927632415381"><ele>566.0</ele><time>2026-03-30T09:01:01.999Z</time></trkpt><trkpt lat="37.857228902357555" lon="13.786009343600394"><ele>565.5714285714286</ele><time>2026-03-30T09:01:07.999Z</time></trkpt><trkpt lat="37.85721117268531" lon="13.786094875742325"><ele>565.1428571428572</ele><time>2026-03-30T09:01:14.999Z</time></trkpt><trkpt lat="37.85714084819918" lon="13.786162536755029"><ele>564.7142857142858</ele><time>2026-03-30T09:01:50Z</time></trkpt><trkpt lat="37.85707061518467" lon="13.786155112847254"><ele>564.2857142857143</ele><time>2026-03-30T09:01:58Z</time></trkpt><trkpt lat="37.85699512029642" lon="13.786147114770575"><ele>563.8571428571429</ele><time>2026-03-30T09:02:05Z</time></trkpt><trkpt lat="37.85692199601065" lon="13.786149230856042"><ele>563.4285714285714</ele><time>2026-03-30T09:02:19Z</time></trkpt><trkpt lat="37.85685873630764" lon="13.786135368766802"><ele>563.0</ele><time>2026-03-30T09:02:28Z</time></trkpt><trkpt lat="37.85678973548886" lon="13.786115994028274"><ele>563.0</ele><time>2026-03-30T09:02:38.999Z</time></trkpt><trkpt lat="37.85672625154575" lon="13.786108917658874"><ele>580.0</ele><time>2026-03-30T09:02:48.999Z</time></trkpt><trkpt lat="37.856661519736605" lon="13.786102912970579"><ele>580.0</ele><time>2026-03-30T09:02:58.999Z</time></trkpt><trkpt lat="37.856600528762684" lon="13.786083161660553"><ele>580.0</ele><time>2026-03-30T09:03:08.999Z</time></trkpt><trkpt lat="37.85653540704138" lon="13.78610328145487"><ele>580.0</ele><time>2026-03-30T09:03:20.999Z</time></trkpt></trkseg></trk></gpx>